Terminal Aerodrome Forecast
Issued by NWS

Home | Current Version | Previous Version | Text Only | Print | Product List | Glossary On
Versions: 1 2 3 4 5 6 7 8 9 10 11 12
000
FTUS45 KABQ 010540
TAFGUP
TAF
KGUP 010540Z 0106/0206 VRB05KT P6SM BKN120
     FM012030 25009KT P6SM VCSH SCT080 BKN120 PROB30 0121/0202
      VRB18G30KT -TSRA BKN060CB OVC100
     FM020500 VRB05KT P6SM SCT090 BKN140=

USA.gov is the U.S. government's official web portal to all federal, state and local government web resources and services.